Time;durP1;ratioP1;P1;durP2;ratioP2;P2;SDS_P1;SDS_P2;PMS_P1;PMS_P2;Temp;Humidity;BMP_temperature;BMP_pressure;BME280_temperature;BME280_humidity;BME280_pressure;Samples;Min_cycle;Max_cycle;Signal;HPM_P1;HPM_P2
2021/06/14 00:01:12;;;;;;;6.97;3.80;;;14.50;99.90;;;;;;5094826;28;20753;-63
2021/06/14 00:03:39;;;;;;;7.37;3.90;;;14.40;99.90;;;;;;5095031;28;20210;-63
2021/06/14 00:06:06;;;;;;;8.87;4.17;;;14.40;99.90;;;;;;5095018;28;20212;-63
2021/06/14 00:08:33;;;;;;;7.87;3.97;;;14.30;99.90;;;;;;5094905;28;20207;-64
2021/06/14 00:11:00;;;;;;;8.30;3.70;;;14.30;99.90;;;;;;5094729;28;20286;-63
2021/06/14 00:13:30;;;;;;;9.00;4.00;;;14.30;99.90;;;;;;5094789;28;20554;-63
2021/06/14 00:15:57;;;;;;;7.17;4.17;;;14.30;99.90;;;;;;5094918;28;20260;-63
2021/06/14 00:18:24;;;;;;;8.23;4.37;;;14.30;99.90;;;;;;5094043;28;20232;-63
2021/06/14 00:20:54;;;;;;;6.47;4.00;;;14.30;99.90;;;;;;5094609;28;20232;-63
2021/06/14 00:23:23;;;;;;;5.97;3.77;;;14.20;99.90;;;;;;5094619;28;20211;-64
2021/06/14 00:25:50;;;;;;;7.03;3.70;;;14.20;99.90;;;;;;5094606;28;20205;-63
2021/06/14 00:28:18;;;;;;;6.73;3.63;;;14.20;99.90;;;;;;5094636;28;20570;-63
2021/06/14 00:30:49;;;;;;;5.80;3.93;;;14.10;99.90;;;;;;5094346;28;20272;-63
2021/06/14 00:33:17;;;;;;;7.47;4.13;;;14.10;99.90;;;;;;5094550;28;20302;-63
2021/06/14 00:35:45;;;;;;;7.67;4.20;;;14.10;99.90;;;;;;5094500;28;20215;-63
2021/06/14 00:38:12;;;;;;;8.70;3.80;;;14.10;99.90;;;;;;5094806;28;20261;-63
2021/06/14 00:40:39;;;;;;;6.00;3.70;;;14.10;99.90;;;;;;5093711;28;20223;-63
2021/06/14 00:43:08;;;;;;;8.07;3.90;;;14.00;99.90;;;;;;5094931;28;20256;-64
2021/06/14 00:45:42;;;;;;;9.13;4.17;;;14.10;99.90;;;;;;5095266;28;20255;-63
2021/06/14 00:48:11;;;;;;;9.00;3.83;;;14.00;99.90;;;;;;5094953;28;20234;-64
2021/06/14 00:50:42;;;;;;;10.40;4.33;;;14.00;99.90;;;;;;5093875;28;20211;-63
2021/06/14 00:53:11;;;;;;;8.50;4.27;;;14.00;99.90;;;;;;5093878;28;20211;-63
2021/06/14 00:55:39;;;;;;;7.63;4.00;;;14.00;99.90;;;;;;5094020;28;20207;-63
2021/06/14 00:58:06;;;;;;;6.23;3.50;;;14.00;99.90;;;;;;5094097;28;20223;-63
2021/06/14 01:00:33;;;;;;;7.27;4.17;;;14.00;99.90;;;;;;5093637;28;20302;-63
2021/06/14 01:03:00;;;;;;;7.80;3.87;;;14.00;99.90;;;;;;5093804;28;20625;-63
2021/06/14 01:05:31;;;;;;;8.33;3.53;;;13.90;99.90;;;;;;5093556;28;20275;-63
2021/06/14 01:07:57;;;;;;;7.47;4.10;;;13.90;99.90;;;;;;5093849;28;20783;-63
2021/06/14 01:10:25;;;;;;;6.80;3.80;;;13.90;99.90;;;;;;5093620;28;20214;-63
2021/06/14 01:13:08;;;;;;;7.23;4.10;;;13.90;99.90;;;;;;5093626;28;20659;-63
2021/06/14 01:15:42;;;;;;;5.97;3.37;;;13.80;99.90;;;;;;5093616;28;20211;-63
2021/06/14 01:18:12;;;;;;;6.27;3.47;;;13.80;99.90;;;;;;5093321;28;20237;-63
2021/06/14 01:20:59;;;;;;;7.50;3.97;;;13.80;99.90;;;;;;5093430;28;20228;-63
2021/06/14 01:24:03;;;;;;;8.60;3.93;;;13.80;99.90;;;;;;5093390;28;20607;-63
2021/06/14 01:26:33;;;;;;;7.83;3.80;;;13.80;99.90;;;;;;5093272;28;20315;-63
2021/06/14 01:29:02;;;;;;;8.13;3.70;;;13.70;99.90;;;;;;5092494;28;20208;-63
2021/06/14 01:31:33;;;;;;;8.30;3.60;;;13.70;99.90;;;;;;5093229;28;20284;-63
2021/06/14 01:34:01;;;;;;;8.53;3.77;;;13.70;99.90;;;;;;5093434;28;20210;-63
2021/06/14 01:36:31;;;;;;;6.20;3.83;;;13.70;99.90;;;;;;5093413;28;20225;-63
2021/06/14 01:38:59;;;;;;;9.50;3.90;;;13.70;99.90;;;;;;5093209;28;20202;-63
2021/06/14 01:41:29;;;;;;;7.80;3.97;;;13.70;99.90;;;;;;5093091;28;20204;-63
2021/06/14 01:43:58;;;;;;;5.60;3.70;;;13.70;99.90;;;;;;5093079;28;20275;-64
2021/06/14 01:46:29;;;;;;;6.57;3.73;;;13.70;99.90;;;;;;5093282;28;20213;-63
2021/06/14 01:48:57;;;;;;;6.43;4.00;;;13.60;99.90;;;;;;5093152;28;20627;-63
2021/06/14 01:51:27;;;;;;;7.90;3.93;;;13.60;99.90;;;;;;5092680;28;20236;-63
2021/06/14 01:54:04;;;;;;;13.87;4.30;;;13.60;99.90;;;;;;5092906;28;20674;-64
2021/06/14 01:56:33;;;;;;;7.30;3.90;;;13.60;99.90;;;;;;5092898;28;20625;-63
2021/06/14 01:59:01;;;;;;;5.87;4.07;;;13.60;99.90;;;;;;5092852;28;20257;-63
2021/06/14 02:01:30;;;;;;;8.80;3.80;;;13.70;99.90;;;;;;5092375;28;20315;-63
2021/06/14 02:03:57;;;;;;;5.33;3.43;;;13.70;99.90;;;;;;5092623;28;20299;-63
2021/06/14 02:06:26;;;;;;;6.37;3.93;;;13.70;99.90;;;;;;5092659;28;20212;-63
2021/06/14 02:08:53;;;;;;;6.43;4.03;;;13.70;99.90;;;;;;5092810;28;20208;-63
2021/06/14 02:11:20;;;;;;;8.50;3.87;;;13.80;99.90;;;;;;5092574;28;20291;-63
2021/06/14 02:13:47;;;;;;;10.60;4.27;;;13.70;99.90;;;;;;5092540;28;20205;-63
2021/06/14 02:16:16;;;;;;;6.10;3.93;;;13.80;99.90;;;;;;5092632;28;20241;-63
2021/06/14 02:18:44;;;;;;;6.87;3.63;;;13.80;99.90;;;;;;5092622;28;20606;-63
2021/06/14 02:21:10;;;;;;;8.53;4.17;;;13.80;99.90;;;;;;5092215;28;20220;-63
2021/06/14 02:23:37;;;;;;;7.27;3.70;;;13.80;99.90;;;;;;5092556;28;20215;-63
2021/06/14 02:26:04;;;;;;;8.97;4.10;;;13.80;99.90;;;;;;5092428;28;20210;-63
2021/06/14 02:28:31;;;;;;;6.37;3.70;;;13.80;99.90;;;;;;5092245;28;20261;-63
2021/06/14 02:30:58;;;;;;;7.00;3.50;;;13.80;99.90;;;;;;5091960;28;20226;-63
2021/06/14 02:33:25;;;;;;;6.50;4.17;;;13.80;99.90;;;;;;5092460;28;20210;-63
2021/06/14 02:35:54;;;;;;;4.47;3.43;;;13.80;99.90;;;;;;5092433;28;20209;-63
2021/06/14 02:38:21;;;;;;;7.70;3.80;;;13.70;99.90;;;;;;5092175;28;20222;-63
2021/06/14 02:40:48;;;;;;;6.20;3.90;;;13.70;99.90;;;;;;5092091;28;20694;-63
2021/06/14 02:43:14;;;;;;;8.50;3.73;;;13.70;99.90;;;;;;5092072;28;20259;-64
2021/06/14 02:45:43;;;;;;;6.80;3.50;;;13.70;99.90;;;;;;5092359;28;20205;-63
2021/06/14 02:48:11;;;;;;;6.93;3.57;;;13.70;99.90;;;;;;5092252;28;20230;-63
2021/06/14 02:50:40;;;;;;;6.80;3.47;;;13.70;99.90;;;;;;5092102;28;20306;-63
2021/06/14 02:53:10;;;;;;;8.97;4.17;;;13.60;99.90;;;;;;5092100;28;20214;-63
2021/06/14 02:55:44;;;;;;;6.23;3.90;;;13.70;99.90;;;;;;5092061;28;20583;-63
2021/06/14 02:58:11;;;;;;;5.23;3.33;;;13.60;99.90;;;;;;5091876;28;20228;-63
2021/06/14 03:00:39;;;;;;;6.47;3.87;;;13.60;99.90;;;;;;5091747;28;20233;-63
2021/06/14 03:03:07;;;;;;;4.57;3.63;;;13.60;99.90;;;;;;5092114;28;20201;-63
2021/06/14 03:05:35;;;;;;;5.97;3.50;;;13.60;99.90;;;;;;5091759;28;20228;-63
2021/06/14 03:08:02;;;;;;;9.07;3.47;;;13.60;99.90;;;;;;5091631;28;20770;-63
2021/06/14 03:10:32;;;;;;;6.70;3.63;;;13.70;99.90;;;;;;5091471;28;20211;-63
2021/06/14 03:13:01;;;;;;;5.90;3.80;;;13.70;99.90;;;;;;5091806;28;20668;-63
2021/06/14 03:15:28;;;;;;;8.33;3.93;;;13.70;99.90;;;;;;5091817;28;20233;-63
2021/06/14 03:17:55;;;;;;;6.10;3.70;;;13.60;99.90;;;;;;5091752;28;20287;-63
2021/06/14 03:20:25;;;;;;;9.50;4.23;;;13.60;99.90;;;;;;5091558;28;20316;-63
2021/06/14 03:22:52;;;;;;;8.97;4.27;;;13.60;99.90;;;;;;5091522;28;20249;-63
2021/06/14 03:25:19;;;;;;;7.97;4.03;;;13.60;99.90;;;;;;5091496;28;20697;-63
2021/06/14 03:27:47;;;;;;;8.17;4.60;;;13.60;99.90;;;;;;5091709;28;20285;-64
2021/06/14 03:30:15;;;;;;;9.30;5.03;;;13.60;99.90;;;;;;5091605;28;20208;-63
2021/06/14 03:32:45;;;;;;;10.40;5.30;;;13.60;99.90;;;;;;5091620;28;20211;-63
2021/06/14 03:35:14;;;;;;;8.87;4.70;;;13.60;99.90;;;;;;5091536;28;20219;-64
2021/06/14 03:37:41;;;;;;;9.57;4.43;;;13.60;99.90;;;;;;5091189;28;20291;-64
2021/06/14 03:40:11;;;;;;;5.97;3.80;;;13.60;99.90;;;;;;5091516;28;20266;-63
2021/06/14 03:42:38;;;;;;;7.30;3.83;;;13.60;99.90;;;;;;5091585;28;20204;-66
2021/06/14 03:45:08;;;;;;;9.17;4.73;;;13.60;99.90;;;;;;5091400;28;20662;-63
2021/06/14 03:47:35;;;;;;;8.70;4.03;;;13.60;99.90;;;;;;5091342;28;20286;-64
2021/06/14 03:50:02;;;;;;;8.03;3.50;;;13.70;99.90;;;;;;5091190;28;20795;-63
2021/06/14 03:52:28;;;;;;;10.07;4.03;;;13.70;99.90;;;;;;5092846;28;20266;-64
2021/06/14 03:54:55;;;;;;;7.77;4.00;;;13.70;99.90;;;;;;5095100;28;20706;-63
2021/06/14 03:57:21;;;;;;;7.97;3.90;;;13.70;99.90;;;;;;5095204;28;20224;-63
2021/06/14 03:59:48;;;;;;;8.30;4.07;;;13.70;99.90;;;;;;5095019;28;20230;-64
2021/06/14 04:02:16;;;;;;;8.17;3.93;;;13.80;99.90;;;;;;5094854;28;20566;-63
2021/06/14 04:04:46;;;;;;;7.07;3.90;;;13.90;99.90;;;;;;5094750;28;20216;-63
2021/06/14 04:07:12;;;;;;;9.33;4.10;;;13.80;99.90;;;;;;5094715;28;20246;-63
2021/06/14 04:09:39;;;;;;;8.77;3.73;;;13.90;99.90;;;;;;5094921;28;20254;-64
2021/06/14 04:12:07;;;;;;;6.93;3.77;;;14.00;99.90;;;;;;5094822;28;20452;-63
2021/06/14 04:14:34;;;;;;;9.00;3.97;;;14.00;99.90;;;;;;5094630;28;20620;-64
2021/06/14 04:17:01;;;;;;;5.97;3.77;;;14.10;99.90;;;;;;5073466;28;20230;-63
2021/06/14 04:19:29;;;;;;;7.50;4.07;;;14.10;99.90;;;;;;5074324;28;20258;-63
2021/06/14 04:21:55;;;;;;;7.47;3.70;;;14.20;99.90;;;;;;5080890;28;20272;-63
2021/06/14 04:24:22;;;;;;;7.30;3.83;;;14.20;99.90;;;;;;5074446;28;20562;-63
2021/06/14 04:26:49;;;;;;;6.63;3.93;;;14.20;99.90;;;;;;5074158;28;20718;-63
2021/06/14 04:29:15;;;;;;;5.87;3.50;;;14.30;99.90;;;;;;5074221;28;20211;-63
2021/06/14 04:31:42;;;;;;;6.43;3.40;;;14.30;99.90;;;;;;5079367;28;20203;-64
2021/06/14 04:34:09;;;;;;;8.50;3.90;;;14.40;99.90;;;;;;5094412;28;20210;-64
2021/06/14 04:36:37;;;;;;;6.73;3.70;;;14.50;99.90;;;;;;5094617;28;20228;-65
2021/06/14 04:39:04;;;;;;;8.60;3.60;;;14.60;99.90;;;;;;5096301;28;20627;-65
2021/06/14 04:41:31;;;;;;;9.70;3.93;;;14.70;99.90;;;;;;5095048;28;20231;-65
2021/06/14 04:43:58;;;;;;;8.40;3.30;;;14.90;99.90;;;;;;5094227;28;20582;-64
2021/06/14 04:46:25;;;;;;;9.33;3.53;;;15.10;99.90;;;;;;5104530;28;20848;-65
2021/06/14 04:48:51;;;;;;;7.27;3.53;;;15.20;99.90;;;;;;5107337;28;20212;-65
2021/06/14 04:51:18;;;;;;;14.73;3.80;;;15.30;99.90;;;;;;5102045;28;20234;-64
2021/06/14 04:53:46;;;;;;;7.03;3.50;;;15.40;99.90;;;;;;5093869;28;20824;-65
2021/06/14 04:56:13;;;;;;;6.37;3.63;;;15.50;99.90;;;;;;5093867;28;20289;-65
2021/06/14 04:58:40;;;;;;;8.10;4.10;;;15.60;99.90;;;;;;5093604;28;20282;-65
2021/06/14 05:01:06;;;;;;;6.67;3.10;;;15.60;99.90;;;;;;5093272;28;20708;-65
2021/06/14 05:03:33;;;;;;;7.00;3.83;;;15.70;99.90;;;;;;5093114;28;20699;-65
2021/06/14 05:05:59;;;;;;;7.23;4.20;;;15.80;99.90;;;;;;5093792;28;20223;-66
2021/06/14 05:08:26;;;;;;;7.87;3.30;;;15.80;99.90;;;;;;5093427;28;20600;-65
2021/06/14 05:10:54;;;;;;;6.67;3.60;;;15.80;99.90;;;;;;5093581;28;20208;-65
2021/06/14 05:13:21;;;;;;;12.27;4.13;;;15.80;99.90;;;;;;5093028;28;20695;-65
2021/06/14 05:15:48;;;;;;;7.13;3.63;;;15.90;99.90;;;;;;5093690;28;20261;-65
2021/06/14 05:18:14;;;;;;;7.50;3.60;;;15.90;99.90;;;;;;5093481;28;20232;-64
2021/06/14 05:20:41;;;;;;;5.90;3.13;;;16.00;99.90;;;;;;5093257;28;20224;-65
2021/06/14 05:23:08;;;;;;;8.70;3.57;;;16.10;99.90;;;;;;5093553;28;20261;-65
2021/06/14 05:25:36;;;;;;;10.70;3.70;;;16.20;99.90;;;;;;5093676;28;20277;-64
2021/06/14 05:28:05;;;;;;;9.97;3.87;;;16.30;99.90;;;;;;5092879;28;20278;-64
2021/06/14 05:30:32;;;;;;;8.17;3.67;;;16.40;99.90;;;;;;5093067;28;20208;-64
2021/06/14 05:32:59;;;;;;;5.33;3.43;;;16.50;99.90;;;;;;5093114;28;20205;-65
2021/06/14 05:35:26;;;;;;;7.07;3.27;;;16.60;99.90;;;;;;5083703;28;20617;-64
2021/06/14 05:37:53;;;;;;;8.00;3.40;;;16.60;99.90;;;;;;5073397;28;20225;-66
2021/06/14 05:40:20;;;;;;;6.90;3.33;;;16.70;99.90;;;;;;5071485;28;20205;-65
2021/06/14 05:42:47;;;;;;;8.90;3.53;;;16.80;99.90;;;;;;5082145;28;20578;-65
2021/06/14 05:45:17;;;;;;;6.93;2.90;;;16.90;99.90;;;;;;5072773;28;20395;-65
2021/06/14 05:47:44;;;;;;;5.57;3.10;;;17.00;99.90;;;;;;5072109;28;20225;-65
2021/06/14 05:50:12;;;;;;;8.00;3.50;;;17.10;99.90;;;;;;5072173;28;20216;-66
2021/06/14 05:52:39;;;;;;;5.53;2.90;;;17.20;99.90;;;;;;5071888;28;20212;-65
2021/06/14 05:55:08;;;;;;;10.13;3.47;;;17.30;99.90;;;;;;5071961;28;20204;-66
2021/06/14 05:57:35;;;;;;;8.23;3.10;;;17.40;99.90;;;;;;5072238;28;20927;-65
2021/06/14 06:00:02;;;;;;;6.83;3.13;;;17.60;99.90;;;;;;5072339;28;20228;-66
2021/06/14 06:02:30;;;;;;;6.73;3.40;;;17.70;99.90;;;;;;5071851;28;20286;-65
2021/06/14 06:04:56;;;;;;;7.47;3.83;;;17.80;99.90;;;;;;5072070;28;20224;-68
2021/06/14 06:07:23;;;;;;;5.33;3.30;;;17.90;99.90;;;;;;5071849;28;20223;-67
2021/06/14 06:09:52;;;;;;;7.07;3.50;;;18.00;99.90;;;;;;5071976;28;20209;-68
2021/06/14 06:12:19;;;;;;;6.50;3.00;;;18.10;99.90;;;;;;5071796;28;20212;-67
2021/06/14 06:14:46;;;;;;;6.70;3.00;;;18.20;99.90;;;;;;5071592;28;20215;-66
2021/06/14 06:17:13;;;;;;;5.70;3.27;;;18.20;99.90;;;;;;5071977;28;20231;-67
2021/06/14 06:19:41;;;;;;;7.43;3.47;;;18.30;99.90;;;;;;5072140;28;20216;-67
2021/06/14 06:22:07;;;;;;;6.03;3.13;;;18.40;99.90;;;;;;5071422;28;20705;-67
2021/06/14 06:24:34;;;;;;;10.33;3.20;;;18.40;99.90;;;;;;5071916;28;20205;-67
2021/06/14 06:27:01;;;;;;;7.20;3.13;;;18.50;99.90;;;;;;5071993;28;20599;-67
2021/06/14 06:29:28;;;;;;;8.40;3.57;;;18.50;99.90;;;;;;5071873;28;20204;-66
2021/06/14 06:31:55;;;;;;;5.13;2.90;;;18.60;99.90;;;;;;5071167;28;20630;-66
2021/06/14 06:34:22;;;;;;;6.13;3.20;;;18.70;99.90;;;;;;5071556;28;20696;-66
2021/06/14 06:36:50;;;;;;;5.57;3.23;;;18.70;99.90;;;;;;5071421;28;20231;-66
2021/06/14 06:39:17;;;;;;;6.17;3.33;;;18.80;99.90;;;;;;5075158;28;20254;-66
2021/06/14 06:41:44;;;;;;;5.33;2.97;;;18.90;99.90;;;;;;5091419;28;20228;-66
2021/06/14 06:44:11;;;;;;;5.33;2.93;;;19.00;99.90;;;;;;5091774;28;20204;-66
2021/06/14 06:46:38;;;;;;;8.37;3.60;;;19.10;99.90;;;;;;5091698;28;20232;-65
2021/06/14 06:49:04;;;;;;;8.90;2.80;;;19.20;99.90;;;;;;5092056;28;20276;-62
2021/06/14 06:51:31;;;;;;;7.23;2.90;;;19.30;99.90;;;;;;5091795;28;20200;-62
2021/06/14 06:54:11;;;;;;;8.60;3.43;;;19.40;99.90;;;;;;5091956;28;20204;-61
2021/06/14 06:56:39;;;;;;;8.00;3.40;;;19.60;99.90;;;;;;5091819;28;20231;-66
2021/06/14 06:59:05;;;;;;;8.53;2.80;;;19.70;99.90;;;;;;5091791;28;20230;-64
2021/06/14 07:01:32;;;;;;;8.77;3.20;;;19.80;99.90;;;;;;5091159;28;20224;-64
2021/06/14 07:03:59;;;;;;;6.87;2.70;;;19.90;99.90;;;;;;5091313;28;20223;-64
2021/06/14 07:06:26;;;;;;;6.87;3.03;;;19.90;99.90;;;;;;5091509;28;20286;-64
2021/06/14 07:08:55;;;;;;;6.60;2.67;;;20.00;99.90;;;;;;5091599;28;20204;-64
2021/06/14 07:11:24;;;;;;;5.47;2.77;;;20.20;99.90;;;;;;5091999;28;20292;-66
2021/06/14 07:13:50;;;;;;;4.60;2.70;;;20.30;99.90;;;;;;5092636;28;20200;-63
2021/06/14 07:16:18;;;;;;;4.93;2.50;;;20.50;99.90;;;;;;5091274;28;20632;-62
2021/06/14 07:18:45;;;;;;;4.67;2.43;;;20.60;99.90;;;;;;5091945;28;20261;-62
2021/06/14 07:21:12;;;;;;;6.60;2.90;;;20.70;99.90;;;;;;5091141;28;20220;-63
2021/06/14 07:23:39;;;;;;;6.93;3.10;;;21.00;99.90;;;;;;5092114;28;20576;-65
2021/06/14 07:26:06;;;;;;;6.00;2.70;;;21.20;99.90;;;;;;5091339;28;20220;-65
2021/06/14 07:28:34;;;;;;;5.53;2.97;;;21.40;99.90;;;;;;5094529;28;20204;-64
2021/06/14 07:31:01;;;;;;;4.57;2.37;;;21.50;99.90;;;;;;5094659;28;20648;-65
2021/06/14 07:33:28;;;;;;;6.83;2.87;;;21.70;99.90;;;;;;5095345;28;20209;-64
2021/06/14 07:35:55;;;;;;;6.60;2.97;;;21.90;99.90;;;;;;5095202;28;20204;-65
2021/06/14 07:38:22;;;;;;;6.67;2.90;;;22.00;99.90;;;;;;5094886;28;20220;-64
2021/06/14 07:40:49;;;;;;;5.43;2.50;;;22.10;99.90;;;;;;5094763;28;20224;-63
2021/06/14 07:43:16;;;;;;;7.10;2.93;;;22.30;99.90;;;;;;5094611;28;20258;-63
2021/06/14 07:45:46;;;;;;;8.53;2.90;;;22.40;99.90;;;;;;5095252;28;20212;-62
2021/06/14 07:48:14;;;;;;;4.93;2.57;;;22.30;99.90;;;;;;5095029;28;20274;-61
2021/06/14 07:50:42;;;;;;;6.83;3.23;;;22.40;99.90;;;;;;5094748;28;20200;-62
2021/06/14 07:53:09;;;;;;;5.57;2.87;;;22.50;99.90;;;;;;5094819;28;20722;-64
2021/06/14 07:55:37;;;;;;;7.13;2.87;;;22.50;99.90;;;;;;5094741;28;20560;-65
2021/06/14 07:58:05;;;;;;;7.27;3.10;;;22.50;99.90;;;;;;5094646;28;20338;-65
2021/06/14 08:00:31;;;;;;;5.63;3.17;;;22.60;99.90;;;;;;5094794;28;20204;-64
2021/06/14 08:02:59;;;;;;;6.73;2.83;;;22.80;99.90;;;;;;5094864;28;20232;-64
2021/06/14 08:05:26;;;;;;;8.13;2.87;;;22.70;99.90;;;;;;5094728;28;20212;-64
2021/06/14 08:07:53;;;;;;;6.60;3.07;;;22.80;99.90;;;;;;5264016;23;20280;-63
2021/06/14 08:10:21;;;;;;;6.30;2.70;;;22.90;99.90;;;;;;5114820;28;20211;-63
2021/06/14 08:12:50;;;;;;;5.93;3.27;;;23.00;99.90;;;;;;5113133;28;20216;-61
2021/06/14 08:15:19;;;;;;;4.80;3.23;;;22.90;99.90;;;;;;5115078;28;20214;-67
2021/06/14 08:17:47;;;;;;;7.67;3.07;;;22.90;99.90;;;;;;5100901;28;20225;-65
2021/06/14 08:20:22;;;;;;;4.93;3.20;;;22.90;99.90;;;;;;5094365;28;20219;-66
2021/06/14 08:25:35;;;;;;;9.97;3.03;;;23.10;99.90;;;;;;5094565;28;20277;-66
2021/06/14 08:28:02;;;;;;;5.33;2.60;;;23.20;99.90;;;;;;5093879;28;20228;-63
2021/06/14 08:30:29;;;;;;;6.43;2.70;;;23.30;99.90;;;;;;5093806;28;20266;-65
2021/06/14 08:32:56;;;;;;;5.03;3.00;;;23.30;99.90;;;;;;5093960;28;20224;-65
2021/06/14 08:35:27;;;;;;;6.67;3.20;;;23.50;99.90;;;;;;5094224;28;20215;-65
2021/06/14 08:37:55;;;;;;;6.03;2.90;;;23.60;99.90;;;;;;5079575;28;20229;-65
2021/06/14 08:40:25;;;;;;;7.60;2.97;;;23.80;99.90;;;;;;5075699;28;20201;-66
2021/06/14 08:42:52;;;;;;;6.27;2.90;;;23.80;99.90;;;;;;5074923;28;20205;-63
2021/06/14 08:45:20;;;;;;;5.27;3.07;;;23.70;99.90;;;;;;5091128;28;20227;-66
2021/06/14 08:47:49;;;;;;;5.27;2.80;;;23.70;99.90;;;;;;5097731;28;20228;-63
2021/06/14 08:50:19;;;;;;;8.10;3.30;;;23.80;99.90;;;;;;5098176;28;20732;-65
2021/06/14 08:52:47;;;;;;;5.70;2.80;;;23.80;99.90;;;;;;5098086;28;20228;-65
2021/06/14 08:55:15;;;;;;;4.40;2.83;;;23.90;99.90;;;;;;5093898;28;20688;-65
2021/06/14 08:57:42;;;;;;;5.10;2.90;;;24.00;99.90;;;;;;5093590;28;20228;-65
2021/06/14 09:00:12;;;;;;;5.10;2.57;;;23.90;99.90;;;;;;5093219;28;20234;-65
2021/06/14 09:02:39;;;;;;;5.83;2.90;;;23.80;99.90;;;;;;5093169;28;20209;-65
2021/06/14 09:05:07;;;;;;;14.73;6.43;;;23.80;99.90;;;;;;5093512;28;20204;-66
2021/06/14 09:07:34;;;;;;;5.00;3.37;;;23.80;99.90;;;;;;5093250;28;20227;-65
2021/06/14 09:10:02;;;;;;;7.17;3.67;;;23.90;99.90;;;;;;5093210;28;20204;-65
2021/06/14 09:12:38;;;;;;;15.77;7.10;;;24.00;99.90;;;;;;5092983;28;20228;-63
2021/06/14 09:15:09;;;;;;;9.23;3.77;;;24.10;99.90;;;;;;5092966;28;20216;-63
2021/06/14 09:17:36;;;;;;;6.20;3.37;;;24.10;99.90;;;;;;5093100;28;20599;-63
2021/06/14 09:20:11;;;;;;;5.03;3.13;;;24.30;99.90;;;;;;5093059;28;20625;-62
2021/06/14 09:22:38;;;;;;;8.27;3.40;;;24.40;99.90;;;;;;5092874;28;20228;-63
2021/06/14 09:25:08;;;;;;;6.17;3.27;;;24.30;99.90;;;;;;5093183;28;20261;-61
2021/06/14 09:27:40;;;;;;;7.03;3.63;;;24.30;99.90;;;;;;5093285;28;20224;-63
2021/06/14 09:30:14;;;;;;;5.50;3.10;;;24.40;99.90;;;;;;5093192;28;20635;-65
2021/06/14 09:32:55;;;;;;;5.20;2.97;;;24.60;99.90;;;;;;5093283;28;20230;-62
2021/06/14 09:35:23;;;;;;;6.27;3.23;;;24.30;99.90;;;;;;5092787;28;20235;-59
2021/06/14 09:38:01;;;;;;;5.50;3.20;;;24.20;99.90;;;;;;5092575;28;20725;-60
2021/06/14 09:40:32;;;;;;;6.40;3.00;;;24.40;99.90;;;;;;5092709;28;20257;-61
2021/06/14 09:42:59;;;;;;;6.50;2.97;;;24.60;99.90;;;;;;5092814;28;20204;-60
2021/06/14 09:45:26;;;;;;;5.70;3.10;;;24.70;99.90;;;;;;5092614;28;20196;-60
2021/06/14 09:47:54;;;;;;;5.47;2.77;;;24.80;99.90;;;;;;5092503;28;20228;-64
2021/06/14 09:50:27;;;;;;;12.03;3.33;;;24.60;99.90;;;;;;5091518;28;20227;-65
2021/06/14 09:53:09;;;;;;;4.10;2.30;;;24.40;99.90;;;;;;5092616;28;20228;-65
2021/06/14 09:55:38;;;;;;;5.77;2.83;;;24.40;99.90;;;;;;5092576;28;20201;-67
2021/06/14 09:58:16;;;;;;;6.20;2.90;;;24.60;99.90;;;;;;5092461;28;20232;-67
2021/06/14 10:00:47;;;;;;;3.70;2.43;;;24.70;99.90;;;;;;5092119;28;20212;-68
2021/06/14 10:03:14;;;;;;;5.23;2.77;;;24.80;99.90;;;;;;5091743;28;20318;-67
2021/06/14 10:05:45;;;;;;;9.27;3.00;;;24.90;99.90;;;;;;5092516;28;20200;-65
2021/06/14 10:08:12;;;;;;;6.37;3.13;;;25.00;99.90;;;;;;5092289;28;20242;-67
2021/06/14 10:10:41;;;;;;;6.13;2.80;;;25.10;99.90;;;;;;5094257;28;20204;-68
2021/06/14 10:13:07;;;;;;;7.87;2.77;;;25.20;99.90;;;;;;5092156;28;20224;-66
2021/06/14 10:15:36;;;;;;;5.77;2.57;;;25.20;99.90;;;;;;5091833;28;20216;-65
2021/06/14 10:18:04;;;;;;;9.87;2.77;;;25.40;99.90;;;;;;5092115;28;20647;-68
2021/06/14 10:20:32;;;;;;;4.00;2.37;;;25.60;99.90;;;;;;5091966;28;20204;-67
2021/06/14 10:23:01;;;;;;;6.77;2.50;;;25.60;99.90;;;;;;5091793;28;20696;-67
2021/06/14 10:25:28;;;;;;;3.77;2.57;;;25.70;99.90;;;;;;5092021;28;20253;-66
2021/06/14 10:27:57;;;;;;;4.43;2.70;;;25.70;99.90;;;;;;5091759;28;20259;-67
2021/06/14 10:30:26;;;;;;;3.73;2.63;;;25.80;99.90;;;;;;5091251;28;20235;-67
2021/06/14 10:32:53;;;;;;;7.07;3.73;;;25.70;99.90;;;;;;5091880;28;20250;-66
2021/06/14 10:35:21;;;;;;;7.07;3.40;;;25.70;99.90;;;;;;5091840;28;20635;-66
2021/06/14 10:37:49;;;;;;;7.20;3.40;;;25.80;99.90;;;;;;5091871;28;20848;-67
2021/06/14 10:40:19;;;;;;;5.17;3.03;;;26.00;99.90;;;;;;5091717;28;20652;-66
2021/06/14 10:42:46;;;;;;;6.17;2.90;;;25.90;99.90;;;;;;5091399;28;20867;-69
2021/06/14 10:45:19;;;;;;;5.03;2.53;;;26.00;99.90;;;;;;5091763;28;20215;-68
2021/06/14 10:47:47;;;;;;;8.17;2.77;;;26.00;99.90;;;;;;5091745;28;20311;-67
2021/06/14 10:50:15;;;;;;;4.57;2.60;;;26.00;99.90;;;;;;5091514;28;20208;-67
2021/06/14 10:52:44;;;;;;;7.37;2.67;;;26.00;99.90;;;;;;5091017;28;20216;-65
2021/06/14 10:55:12;;;;;;;4.87;2.70;;;26.00;99.90;;;;;;5091907;28;20274;-70
2021/06/14 10:57:40;;;;;;;4.33;2.70;;;25.90;99.90;;;;;;5091736;28;20735;-70
2021/06/14 11:00:25;;;;;;;7.00;3.17;;;25.80;99.90;;;;;;5091517;28;20262;-68
2021/06/14 11:02:57;;;;;;;4.83;2.73;;;25.90;99.90;;;;;;5095258;28;20661;-68
2021/06/14 11:05:31;;;;;;;6.20;2.70;;;25.90;99.90;;;;;;5095624;28;20208;-69
2021/06/14 11:07:58;;;;;;;5.30;2.80;;;26.10;99.90;;;;;;5095492;28;20604;-68
2021/06/14 11:10:28;;;;;;;4.83;2.47;;;26.20;99.90;;;;;;5095385;28;20208;-67
2021/06/14 11:13:06;;;;;;;6.43;2.90;;;26.20;99.90;;;;;;5095510;28;20223;-68
2021/06/14 11:15:35;;;;;;;5.97;2.60;;;26.30;99.90;;;;;;5095412;28;20208;-69
2021/06/14 11:18:05;;;;;;;5.37;2.70;;;26.30;99.90;;;;;;5095204;28;20235;-68
2021/06/14 11:20:35;;;;;;;8.63;2.93;;;26.50;99.90;;;;;;5095355;28;20299;-67
2021/06/14 11:23:02;;;;;;;6.03;2.70;;;26.70;99.90;;;;;;5095973;28;20281;-68
2021/06/14 11:25:31;;;;;;;4.50;2.70;;;26.50;99.90;;;;;;5096003;28;20207;-67
2021/06/14 11:27:59;;;;;;;7.33;2.67;;;26.60;99.90;;;;;;5095148;28;20730;-68
2021/06/14 11:30:29;;;;;;;6.13;2.67;;;26.70;99.90;;;;;;5094852;28;20212;-68
2021/06/14 11:32:57;;;;;;;5.83;2.47;;;26.70;99.90;;;;;;5095142;28;20235;-67
2021/06/14 11:35:24;;;;;;;5.40;2.30;;;26.70;99.90;;;;;;5095471;28;20257;-67
2021/06/14 11:37:53;;;;;;;4.20;2.40;;;26.70;99.90;;;;;;5095270;28;20236;-67
2021/06/14 11:40:27;;;;;;;5.90;2.50;;;26.80;99.90;;;;;;5095052;28;20212;-67
2021/06/14 11:42:59;;;;;;;6.13;2.80;;;26.90;99.90;;;;;;5094688;28;20204;-67
2021/06/14 11:45:28;;;;;;;6.13;2.90;;;26.70;99.90;;;;;;5095168;28;20208;-67
2021/06/14 11:47:57;;;;;;;5.33;2.60;;;26.70;99.90;;;;;;5094837;28;20229;-66
2021/06/14 11:50:25;;;;;;;5.43;2.70;;;26.50;99.90;;;;;;5094688;28;20207;-68
2021/06/14 11:53:00;;;;;;;8.17;3.20;;;26.70;99.90;;;;;;5094515;28;20231;-68
2021/06/14 11:55:28;;;;;;;7.93;3.33;;;26.80;99.90;;;;;;5094583;28;20204;-66
2021/06/14 11:57:57;;;;;;;28.00;15.90;;;26.90;99.90;;;;;;5094861;28;20223;-68
2021/06/14 12:00:29;;;;;;;9.83;2.90;;;27.00;99.90;;;;;;5094488;28;20265;-68
2021/06/14 12:02:58;;;;;;;5.47;2.80;;;26.80;99.90;;;;;;5094516;28;20201;-69
2021/06/14 12:05:33;;;;;;;4.43;2.77;;;26.80;99.90;;;;;;5094555;28;20217;-69
2021/06/14 12:08:00;;;;;;;5.97;2.83;;;26.90;99.90;;;;;;5094131;28;20300;-69
2021/06/14 12:10:27;;;;;;;6.70;2.47;;;27.00;99.90;;;;;;5094392;28;20201;-69
2021/06/14 12:13:05;;;;;;;9.30;2.47;;;27.00;99.90;;;;;;5093486;28;20893;-66
2021/06/14 12:15:32;;;;;;;7.03;2.70;;;27.00;99.90;;;;;;5094437;28;20633;-68
2021/06/14 12:18:00;;;;;;;4.67;2.43;;;26.90;99.90;;;;;;5094590;28;20228;-67
2021/06/14 12:20:29;;;;;;;8.13;2.80;;;26.80;99.90;;;;;;5093908;28;20208;-67
2021/06/14 12:23:00;;;;;;;10.10;2.83;;;26.80;99.90;;;;;;5094335;28;20204;-69
2021/06/14 12:25:28;;;;;;;5.87;2.93;;;26.80;99.90;;;;;;5094380;28;20212;-68
2021/06/14 12:27:59;;;;;;;5.57;2.53;;;26.80;99.90;;;;;;5094998;28;20256;-69
2021/06/14 12:30:26;;;;;;;3.80;2.47;;;26.70;99.90;;;;;;5094101;28;20625;-69
2021/06/14 12:32:53;;;;;;;6.23;2.80;;;27.00;99.90;;;;;;5093746;28;20226;-67
2021/06/14 12:35:22;;;;;;;7.43;3.13;;;27.20;99.90;;;;;;5094426;28;20291;-68
2021/06/14 12:37:49;;;;;;;8.70;3.00;;;27.10;99.90;;;;;;5093989;28;20605;-67
2021/06/14 12:40:19;;;;;;;8.83;2.60;;;27.20;99.90;;;;;;5093683;28;20708;-68
2021/06/14 12:42:55;;;;;;;7.87;2.67;;;27.40;99.90;;;;;;5093504;28;20673;-68
2021/06/14 12:45:22;;;;;;;4.47;2.43;;;27.60;99.90;;;;;;5094014;28;20687;-68
2021/06/14 12:47:50;;;;;;;4.87;2.30;;;27.60;99.90;;;;;;5094763;28;20253;-70
2021/06/14 12:50:24;;;;;;;4.43;2.00;;;27.60;99.90;;;;;;5098439;28;20219;-70
2021/06/14 12:52:51;;;;;;;7.73;2.13;;;27.70;99.90;;;;;;5096202;28;20215;-68
2021/06/14 12:55:22;;;;;;;3.50;1.90;;;27.60;99.90;;;;;;5093816;28;20212;-68